createdAt,value
2023-02-05T00:00:02.449Z,7.95
2023-02-05T00:02:28.982Z,8.60
2023-02-05T00:04:55.507Z,9.15
2023-02-05T00:07:21.929Z,8.10
2023-02-05T00:09:48.414Z,8.02
2023-02-05T00:12:14.922Z,9.05
2023-02-05T00:14:41.422Z,8.15
2023-02-05T00:17:07.919Z,8.57
2023-02-05T00:19:34.413Z,9.40
2023-02-05T00:22:00.953Z,8.73
2023-02-05T00:24:27.454Z,8.80
2023-02-05T00:26:53.954Z,8.18
2023-02-05T00:29:20.482Z,8.00
2023-02-05T00:31:49.588Z,8.67
2023-02-05T00:34:16.801Z,8.43
2023-02-05T00:36:43.349Z,8.23
2023-02-05T00:39:11.398Z,8.90
2023-02-05T00:41:38.428Z,10.25
2023-02-05T00:44:06.501Z,8.00
2023-02-05T00:46:33.116Z,9.90
2023-02-05T00:48:59.879Z,9.07
2023-02-05T00:51:26.454Z,9.48
2023-02-05T00:53:52.977Z,9.32
2023-02-05T00:56:19.501Z,9.13
2023-02-05T00:58:47.873Z,9.40
2023-02-05T01:01:15.201Z,9.05
2023-02-05T01:03:42.474Z,8.73
2023-02-05T01:06:08.971Z,9.82
2023-02-05T01:08:35.638Z,9.23
2023-02-05T01:11:08.487Z,8.65
2023-02-05T01:13:35.177Z,8.18
2023-02-05T01:16:01.774Z,8.98
2023-02-05T01:18:28.352Z,8.55
2023-02-05T01:20:54.815Z,8.43
2023-02-05T01:23:21.992Z,8.98
2023-02-05T01:25:48.543Z,9.23
2023-02-05T01:28:15.359Z,8.90
2023-02-05T01:30:41.982Z,8.63
2023-02-05T01:33:08.502Z,9.03
2023-02-05T01:35:35.382Z,8.70
2023-02-05T01:38:02.200Z,8.85
2023-02-05T01:40:28.711Z,9.10
2023-02-05T01:42:55.372Z,8.73
2023-02-05T01:45:21.773Z,9.60
2023-02-05T01:47:53.845Z,9.07
2023-02-05T01:50:40.436Z,8.95
2023-02-05T01:53:11.669Z,8.95
2023-02-05T01:55:43.325Z,9.32
2023-02-05T01:58:10.291Z,9.90
2023-02-05T02:00:37.027Z,10.70
2023-02-05T02:03:04.041Z,10.85
2023-02-05T02:05:30.555Z,11.52
2023-02-05T02:07:57.078Z,11.15
2023-02-05T02:10:23.865Z,11.17
2023-02-05T02:12:51.045Z,11.57
2023-02-05T02:15:20.966Z,12.65
2023-02-05T02:17:51.714Z,12.90
2023-02-05T02:20:23.517Z,13.43
2023-02-05T02:22:56.055Z,11.37
2023-02-05T02:25:35.092Z,14.25
2023-02-05T02:28:29.633Z,13.32
2023-02-05T02:31:03.748Z,13.38
2023-02-05T02:33:44.771Z,13.63
2023-02-05T02:36:26.556Z,13.97
2023-02-05T02:38:59.951Z,16.10
2023-02-05T02:41:45.661Z,15.23
2023-02-05T02:44:20.614Z,14.38
2023-02-05T02:46:51.807Z,16.00
2023-02-05T02:49:26.259Z,17.37
2023-02-05T02:51:54.463Z,15.95
2023-02-05T02:54:22.267Z,16.98
2023-02-05T02:56:51.331Z,15.00
2023-02-05T02:59:21.973Z,17.25
2023-02-05T03:01:54.062Z,17.23
2023-02-05T03:04:27.876Z,16.98
2023-02-05T03:06:57.771Z,18.35
2023-02-05T03:09:34.038Z,18.52
2023-02-05T03:12:01.720Z,17.95
2023-02-05T03:14:28.788Z,18.00
2023-02-05T03:16:56.458Z,20.00
2023-02-05T03:19:23.616Z,19.02
2023-02-05T03:21:56.355Z,18.35
2023-02-05T03:24:22.862Z,20.63
2023-02-05T03:26:49.328Z,19.50
2023-02-05T03:29:27.354Z,20.20
2023-02-05T03:32:19.858Z,20.15
2023-02-05T03:35:01.745Z,20.33
2023-02-05T03:37:52.973Z,19.23
2023-02-05T03:40:43.619Z,18.77
2023-02-05T03:43:17.029Z,20.95
2023-02-05T03:46:20.104Z,20.75
2023-02-05T03:49:03.218Z,20.05
2023-02-05T03:51:56.292Z,21.25
2023-02-05T03:54:38.319Z,20.90
2023-02-05T03:57:17.045Z,20.40
2023-02-05T03:59:46.337Z,20.83
2023-02-05T04:02:14.156Z,21.02
2023-02-05T04:04:43.167Z,21.35
2023-02-05T04:07:10.036Z,20.10
2023-02-05T04:09:38.123Z,19.13
2023-02-05T04:12:04.825Z,20.63
2023-02-05T04:14:32.418Z,18.85
2023-02-05T04:16:58.974Z,18.92
2023-02-05T04:19:26.891Z,18.70
2023-02-05T04:21:56.391Z,19.15
2023-02-05T04:24:22.915Z,17.83
2023-02-05T04:26:51.032Z,19.27
2023-02-05T04:29:18.439Z,17.55
2023-02-05T04:31:48.230Z,17.43
2023-02-05T04:34:14.811Z,18.45
2023-02-05T04:36:41.410Z,16.95
2023-02-05T04:39:07.996Z,15.30
2023-02-05T04:41:34.582Z,14.85
2023-02-05T04:44:00.989Z,15.70
2023-02-05T04:46:27.565Z,15.10
2023-02-05T04:48:54.086Z,14.73
2023-02-05T04:51:20.576Z,14.10
2023-02-05T04:53:48.359Z,14.50
2023-02-05T04:56:17.018Z,13.43
2023-02-05T04:58:44.187Z,13.90
2023-02-05T05:01:20.237Z,13.52
2023-02-05T05:03:47.317Z,14.93
2023-02-05T05:06:15.242Z,12.63
2023-02-05T05:08:42.106Z,13.53
2023-02-05T05:11:13.695Z,13.20
2023-02-05T05:13:40.804Z,12.63
2023-02-05T05:16:08.470Z,12.88
2023-02-05T05:18:35.089Z,13.90
2023-02-05T05:21:02.226Z,12.73
2023-02-05T05:23:28.874Z,13.18
2023-02-05T05:25:55.538Z,12.77
2023-02-05T05:28:22.096Z,13.05
2023-02-05T05:30:49.299Z,12.57
2023-02-05T05:33:16.669Z,13.43
2023-02-05T05:35:43.179Z,12.48
2023-02-05T05:38:09.679Z,13.32
2023-02-05T05:40:54.589Z,14.30
2023-02-05T05:43:40.331Z,13.38
2023-02-05T05:46:08.343Z,12.27
2023-02-05T05:48:35.200Z,12.27
2023-02-05T05:51:01.968Z,11.38
2023-02-05T05:53:28.730Z,10.55
2023-02-05T05:55:55.440Z,10.77
2023-02-05T05:58:22.028Z,10.73
2023-02-05T06:00:48.596Z,9.93
2023-02-05T06:03:15.098Z,9.15
2023-02-05T06:05:41.754Z,9.10
2023-02-05T06:08:08.600Z,10.02
2023-02-05T06:10:35.203Z,8.33
2023-02-05T06:13:01.839Z,7.40
2023-02-05T06:15:28.565Z,5.57
2023-02-05T06:17:55.098Z,4.82
2023-02-05T06:20:21.784Z,3.40
2023-02-05T06:22:48.260Z,2.20
2023-02-05T06:25:15.797Z,1.50
2023-02-05T06:27:42.558Z,1.20
2023-02-05T06:30:10.461Z,0.90
2023-02-05T06:32:36.963Z,0.80
2023-02-05T06:35:03.459Z,0.70
2023-02-05T06:37:46.256Z,0.50
2023-02-05T06:40:15.700Z,0.52
2023-02-05T06:42:42.524Z,0.68
2023-02-05T06:45:10.146Z,0.93
2023-02-05T06:47:37.057Z,0.73
2023-02-05T06:50:04.489Z,0.85
2023-02-05T06:52:30.973Z,0.90
2023-02-05T06:54:57.565Z,0.75
2023-02-05T06:57:24.054Z,0.20
2023-02-05T06:59:50.516Z,0.50
2023-02-05T07:02:17.273Z,0.40
2023-02-05T07:04:43.785Z,0.40
2023-02-05T07:07:10.383Z,0.30
2023-02-05T07:09:36.899Z,0.30
2023-02-05T07:12:03.509Z,0.20
2023-02-05T07:14:31.490Z,0.20
2023-02-05T07:16:58.044Z,0.50
2023-02-05T07:19:24.570Z,0.30
2023-02-05T07:21:51.103Z,0.75
2023-02-05T07:24:17.553Z,0.40
2023-02-05T07:26:45.254Z,0.80
2023-02-05T07:29:11.946Z,0.73
2023-02-05T07:31:38.631Z,0.80
2023-02-05T07:34:05.431Z,0.38
2023-02-05T07:36:31.913Z,0.97
2023-02-05T07:38:58.483Z,0.70
2023-02-05T07:41:26.775Z,0.32
2023-02-05T07:43:54.454Z,1.35
2023-02-05T07:46:22.081Z,0.55
2023-02-05T07:48:49.066Z,0.50
2023-02-05T07:51:21.246Z,0.77
2023-02-05T07:53:47.992Z,0.60
2023-02-05T07:56:15.517Z,1.45
2023-02-05T07:58:42.710Z,1.10
2023-02-05T08:01:09.337Z,0.50
2023-02-05T08:03:36.126Z,1.05
2023-02-05T08:06:07.464Z,1.17
2023-02-05T08:08:34.060Z,1.38
2023-02-05T08:11:02.924Z,0.88
2023-02-05T08:13:29.693Z,0.67
2023-02-05T08:15:56.397Z,0.93
2023-02-05T08:18:23.790Z,0.95
2023-02-05T08:20:54.670Z,0.47
2023-02-05T08:23:21.677Z,1.00
2023-02-05T08:25:48.557Z,1.20
2023-02-05T08:28:15.095Z,0.65
2023-02-05T08:30:41.678Z,0.55
2023-02-05T08:33:08.270Z,0.55
2023-02-05T08:35:35.163Z,1.05
2023-02-05T08:38:01.767Z,0.57
2023-02-05T08:40:28.302Z,0.22
2023-02-05T08:42:57.622Z,0.57
2023-02-05T08:45:25.485Z,0.60
2023-02-05T08:47:52.204Z,0.40
2023-02-05T08:50:19.386Z,0.97
2023-02-05T08:52:45.997Z,0.55
2023-02-05T08:55:13.484Z,0.43
2023-02-05T08:57:40.706Z,1.05
2023-02-05T09:00:08.006Z,0.50
2023-02-05T09:02:34.435Z,1.17
2023-02-05T09:05:09.050Z,0.50
2023-02-05T09:07:37.749Z,1.00
2023-02-05T09:10:05.776Z,1.33
2023-02-05T09:12:32.284Z,0.90
2023-02-05T09:14:58.775Z,0.70
2023-02-05T09:17:25.491Z,0.85
2023-02-05T09:19:51.970Z,1.10
2023-02-05T09:22:18.556Z,1.23
2023-02-05T09:24:45.109Z,1.17
2023-02-05T09:27:14.242Z,1.20
2023-02-05T09:29:41.309Z,0.90
2023-02-05T09:32:07.831Z,1.15
2023-02-05T09:34:34.446Z,0.90
2023-02-05T09:37:00.963Z,1.10
2023-02-05T09:40:11.989Z,1.50
2023-02-05T09:42:19.830Z,1.35
2023-02-05T09:45:04.040Z,1.35
2023-02-05T09:47:53.350Z,1.95
2023-02-05T09:50:27.573Z,1.10
2023-02-05T09:53:15.777Z,1.67
2023-02-05T09:55:44.942Z,1.65
2023-02-05T09:58:18.420Z,1.48
2023-02-05T10:01:00.966Z,0.90
2023-02-05T10:03:47.089Z,1.48
2023-02-05T10:06:32.335Z,1.80
2023-02-05T10:09:13.825Z,1.50
2023-02-05T10:11:46.405Z,1.55
2023-02-05T10:14:49.301Z,1.33
2023-02-05T10:17:34.427Z,1.38
2023-02-05T10:20:31.207Z,1.23
2023-02-05T10:23:18.884Z,1.48
2023-02-05T10:26:15.448Z,2.28
2023-02-05T10:29:15.440Z,1.30
2023-02-05T10:32:03.565Z,1.52
2023-02-05T10:34:49.132Z,1.77
2023-02-05T10:37:20.916Z,2.05
2023-02-05T10:39:48.362Z,1.92
2023-02-05T10:42:34.181Z,0.80
2023-02-05T10:45:13.132Z,1.90
2023-02-05T10:47:53.106Z,1.50
2023-02-05T10:50:56.486Z,1.40
2023-02-05T10:53:25.244Z,2.03
2023-02-05T10:55:51.921Z,1.00
2023-02-05T10:58:42.235Z,1.60
2023-02-05T11:01:21.603Z,1.00
2023-02-05T11:03:56.661Z,1.85
2023-02-05T11:06:26.268Z,0.70
2023-02-05T11:08:53.276Z,1.20
2023-02-05T11:11:28.618Z,1.13
2023-02-05T11:14:01.594Z,1.40
2023-02-05T11:16:36.493Z,1.05
2023-02-05T11:19:03.918Z,1.40
2023-02-05T11:21:58.040Z,1.42
2023-02-05T11:24:29.605Z,1.70
2023-02-05T11:27:15.895Z,1.70
2023-02-05T11:29:42.954Z,1.90
2023-02-05T11:32:33.189Z,3.47
2023-02-05T11:35:32.585Z,1.80
2023-02-05T11:38:15.340Z,1.60
2023-02-05T11:40:50.589Z,1.70
2023-02-05T11:43:23.241Z,2.17
2023-02-05T11:45:52.501Z,2.13
2023-02-05T11:48:33.516Z,2.13
2023-02-05T11:51:03.371Z,2.13
2023-02-05T11:53:32.990Z,1.80
2023-02-05T11:56:03.228Z,3.00
2023-02-05T11:58:36.807Z,3.25
2023-02-05T12:01:23.885Z,2.50
2023-02-05T12:04:14.624Z,2.20
2023-02-05T12:06:53.492Z,2.53
2023-02-05T12:09:22.652Z,2.90
2023-02-05T12:12:21.428Z,2.10
2023-02-05T12:15:09.846Z,2.60
2023-02-05T12:17:57.251Z,1.52
2023-02-05T12:20:38.676Z,1.90
2023-02-05T12:23:43.518Z,2.88
2023-02-05T12:26:30.001Z,2.13
2023-02-05T12:29:13.528Z,2.88
2023-02-05T12:31:46.116Z,1.77
2023-02-05T12:34:27.667Z,1.70
2023-02-05T12:37:22.451Z,2.97
2023-02-05T12:39:54.290Z,2.60
2023-02-05T12:42:35.433Z,3.05
2023-02-05T12:45:24.201Z,2.83
2023-02-05T12:47:59.949Z,2.67
2023-02-05T12:50:32.527Z,3.55
2023-02-05T12:53:31.317Z,2.42
2023-02-05T12:56:14.714Z,2.42
2023-02-05T12:58:48.903Z,2.70
2023-02-05T13:01:20.785Z,2.43
2023-02-05T13:03:53.386Z,2.17
2023-02-05T13:06:42.162Z,2.47
2023-02-05T13:09:19.263Z,1.92
2023-02-05T13:12:07.257Z,1.65
2023-02-05T13:14:42.830Z,1.83
2023-02-05T13:17:41.108Z,1.88
2023-02-05T13:20:19.711Z,1.85
2023-02-05T13:23:16.568Z,1.90
2023-02-05T13:26:07.433Z,1.42
2023-02-05T13:28:47.491Z,1.80
2023-02-05T13:31:55.197Z,2.50
2023-02-05T13:34:22.889Z,1.90
2023-02-05T13:37:01.384Z,1.45
2023-02-05T13:39:34.283Z,1.70
2023-02-05T13:42:27.189Z,2.17
2023-02-05T13:45:18.410Z,1.98
2023-02-05T13:47:57.526Z,1.80
2023-02-05T13:50:33.071Z,1.60
2023-02-05T13:53:14.486Z,1.42
2023-02-05T13:56:02.165Z,1.97
2023-02-05T13:58:35.586Z,1.55
2023-02-05T14:01:14.022Z,1.48
2023-02-05T14:03:54.053Z,1.23
2023-02-05T14:06:36.090Z,1.73
2023-02-05T14:09:09.606Z,1.83
2023-02-05T14:11:43.889Z,1.67
2023-02-05T14:14:16.287Z,2.13
2023-02-05T14:16:42.914Z,1.55
2023-02-05T14:19:27.610Z,1.73
2023-02-05T14:22:10.290Z,2.13
2023-02-05T14:24:49.035Z,2.00
2023-02-05T14:27:31.301Z,1.92
2023-02-05T14:30:17.867Z,1.77
2023-02-05T14:32:44.532Z,2.47
2023-02-05T14:35:54.769Z,1.80
2023-02-05T14:38:30.995Z,2.50
2023-02-05T14:41:14.697Z,1.85
2023-02-05T14:43:46.538Z,2.05
2023-02-05T14:46:33.169Z,1.63
2023-02-05T14:49:06.509Z,1.60
2023-02-05T14:51:41.317Z,1.80
2023-02-05T14:54:17.993Z,2.28
2023-02-05T14:57:10.545Z,2.00
2023-02-05T15:00:04.673Z,1.75
2023-02-05T15:02:53.175Z,1.60
2023-02-05T15:05:25.292Z,1.65
2023-02-05T15:08:00.409Z,2.08
2023-02-05T15:10:31.960Z,1.88
2023-02-05T15:13:13.463Z,1.73
2023-02-05T15:15:40.242Z,1.53
2023-02-05T15:18:24.051Z,1.75
2023-02-05T15:20:53.099Z,1.90
2023-02-05T15:23:35.223Z,1.55
2023-02-05T15:26:05.558Z,2.63
2023-02-05T15:29:01.545Z,1.70
2023-02-05T15:31:41.469Z,2.03
2023-02-05T15:34:29.547Z,1.80
2023-02-05T15:37:06.473Z,1.58
2023-02-05T15:39:57.934Z,1.27
2023-02-05T15:42:37.998Z,2.13
2023-02-05T15:45:24.353Z,2.30
2023-02-05T15:48:08.964Z,2.13
2023-02-05T15:50:43.587Z,1.63
2023-02-05T15:53:24.442Z,2.00
2023-02-05T15:55:51.584Z,2.67
2023-02-05T15:58:24.140Z,2.60
2023-02-05T16:00:52.429Z,1.45
2023-02-05T16:03:38.830Z,2.00
2023-02-05T16:06:06.872Z,2.75
2023-02-05T16:08:34.190Z,2.30
2023-02-05T16:11:05.389Z,2.88
2023-02-05T16:13:31.884Z,2.83
2023-02-05T16:16:11.595Z,2.63
2023-02-05T16:18:46.112Z,2.35
2023-02-05T16:21:18.555Z,2.40
2023-02-05T16:23:57.067Z,1.95
2023-02-05T16:26:29.169Z,1.42
2023-02-05T16:29:02.333Z,1.77
2023-02-05T16:31:30.190Z,2.00
2023-02-05T16:34:01.120Z,2.40
2023-02-05T16:36:31.685Z,2.50
2023-02-05T16:39:04.343Z,2.33
2023-02-05T16:41:37.344Z,2.22
2023-02-05T16:44:06.627Z,3.47
2023-02-05T16:46:35.497Z,2.40
2023-02-05T16:49:23.909Z,2.85
2023-02-05T16:51:50.428Z,2.85
2023-02-05T16:54:19.894Z,2.40
2023-02-05T16:56:50.438Z,1.95
2023-02-05T16:59:21.534Z,2.03
2023-02-05T17:01:48.134Z,2.33
2023-02-05T17:04:27.013Z,2.13
2023-02-05T17:06:56.845Z,3.25
2023-02-05T17:09:34.193Z,2.45
2023-02-05T17:12:19.604Z,3.43
2023-02-05T17:14:53.376Z,2.90
2023-02-05T17:17:20.025Z,2.80
2023-02-05T17:20:19.359Z,2.70
2023-02-05T17:23:16.073Z,2.05
2023-02-05T17:25:51.131Z,2.03
2023-02-05T17:28:25.617Z,2.53
2023-02-05T17:30:53.919Z,2.20
2023-02-05T17:33:23.173Z,2.95
2023-02-05T17:35:49.936Z,3.22
2023-02-05T17:38:17.405Z,3.27
2023-02-05T17:40:44.481Z,3.05
2023-02-05T17:43:11.084Z,3.70
2023-02-05T17:45:39.841Z,3.80
2023-02-05T17:48:08.273Z,3.17
2023-02-05T17:50:36.033Z,2.67
2023-02-05T17:53:03.105Z,3.05
2023-02-05T17:55:29.986Z,2.50
2023-02-05T17:57:56.571Z,2.97
2023-02-05T18:00:26.248Z,3.72
2023-02-05T18:02:53.513Z,3.63
2023-02-05T18:05:20.533Z,3.67
2023-02-05T18:07:50.476Z,3.95
2023-02-05T18:10:23.348Z,2.80
2023-02-05T18:12:50.326Z,2.30
2023-02-05T18:15:17.000Z,2.73
2023-02-05T18:17:43.510Z,2.67
2023-02-05T18:20:11.150Z,3.75
2023-02-05T18:22:38.151Z,2.83
2023-02-05T18:25:06.377Z,2.90
2023-02-05T18:27:33.748Z,3.17
2023-02-05T18:30:00.215Z,3.17
2023-02-05T18:32:26.843Z,4.82
2023-02-05T18:34:53.393Z,4.15
2023-02-05T18:37:19.921Z,3.22
2023-02-05T18:39:46.629Z,3.30
2023-02-05T18:42:13.209Z,2.97
2023-02-05T18:44:39.878Z,3.17
2023-02-05T18:47:07.109Z,3.72
2023-02-05T18:49:34.594Z,2.83
2023-02-05T18:52:02.229Z,4.00
2023-02-05T18:54:28.878Z,4.15
2023-02-05T18:56:56.366Z,3.60
2023-02-05T18:59:24.073Z,3.20
2023-02-05T19:01:51.273Z,2.85
2023-02-05T19:04:21.005Z,5.07
2023-02-05T19:06:53.679Z,3.22
2023-02-05T19:09:22.222Z,4.60
2023-02-05T19:11:49.111Z,3.45
2023-02-05T19:14:17.675Z,4.05
2023-02-05T19:16:44.936Z,4.40
2023-02-05T19:19:17.220Z,3.00
2023-02-05T19:21:44.979Z,3.58
2023-02-05T19:24:13.387Z,3.25
2023-02-05T19:26:45.075Z,3.15
2023-02-05T19:29:15.344Z,2.93
2023-02-05T19:31:42.472Z,2.88
2023-02-05T19:34:09.843Z,3.28
2023-02-05T19:36:36.714Z,3.00
2023-02-05T19:39:05.814Z,3.28
2023-02-05T19:41:34.498Z,3.27
2023-02-05T19:44:04.070Z,3.92
2023-02-05T19:46:33.452Z,3.00
2023-02-05T19:49:03.021Z,4.25
2023-02-05T19:51:30.062Z,3.55
2023-02-05T19:53:57.435Z,3.67
2023-02-05T19:56:24.899Z,2.67
2023-02-05T19:58:53.957Z,3.40
2023-02-05T20:01:26.544Z,4.13
2023-02-05T20:03:59.097Z,5.43
2023-02-05T20:06:27.751Z,5.83
2023-02-05T20:08:54.805Z,3.95
2023-02-05T20:11:21.615Z,3.55
2023-02-05T20:13:48.616Z,3.13
2023-02-05T20:16:21.160Z,3.50
2023-02-05T20:18:53.173Z,3.33
2023-02-05T20:21:20.358Z,5.20
2023-02-05T20:23:48.456Z,6.45
2023-02-05T20:26:18.974Z,5.90
2023-02-05T20:29:06.044Z,4.38
2023-02-05T20:31:33.334Z,6.67
2023-02-05T20:34:01.432Z,5.32
2023-02-05T20:36:27.913Z,4.65
2023-02-05T20:38:56.654Z,5.20
2023-02-05T20:41:23.424Z,5.40
2023-02-05T20:43:49.985Z,4.20
2023-02-05T20:46:16.643Z,5.13
2023-02-05T20:48:43.117Z,3.00
2023-02-05T20:51:12.017Z,3.65
2023-02-05T20:53:38.939Z,3.13
2023-02-05T20:56:11.716Z,4.07
2023-02-05T20:58:38.354Z,4.80
2023-02-05T21:01:10.054Z,3.97
2023-02-05T21:03:38.199Z,2.97
2023-02-05T21:06:05.380Z,3.72
2023-02-05T21:08:31.857Z,3.97
2023-02-05T21:10:58.396Z,4.25
2023-02-05T21:13:24.973Z,3.22
2023-02-05T21:15:53.463Z,3.50
2023-02-05T21:18:20.709Z,4.20
2023-02-05T21:20:47.704Z,5.20
2023-02-05T21:23:14.369Z,3.10
2023-02-05T21:25:40.948Z,3.42
2023-02-05T21:28:07.526Z,4.25
2023-02-05T21:30:34.539Z,3.03
2023-02-05T21:33:01.375Z,3.50
2023-02-05T21:35:28.402Z,2.97
2023-02-05T21:37:54.901Z,2.95
2023-02-05T21:40:21.641Z,3.47
2023-02-05T21:42:48.182Z,3.85
2023-02-05T21:45:14.692Z,3.67
2023-02-05T21:47:41.191Z,3.33
2023-02-05T21:50:07.998Z,3.50
2023-02-05T21:52:34.496Z,2.95
2023-02-05T21:55:01.044Z,2.75
2023-02-05T21:57:27.490Z,3.10
2023-02-05T21:59:54.088Z,2.70
2023-02-05T22:02:20.604Z,2.75
2023-02-05T22:04:47.207Z,3.33
2023-02-05T22:07:13.699Z,2.42
2023-02-05T22:09:40.151Z,3.33
2023-02-05T22:12:06.674Z,3.05
2023-02-05T22:14:34.046Z,4.10
2023-02-05T22:17:00.535Z,3.47
2023-02-05T22:19:27.259Z,3.55
2023-02-05T22:21:54.440Z,3.33
2023-02-05T22:24:22.859Z,4.47
2023-02-05T22:26:50.074Z,3.92
2023-02-05T22:29:19.183Z,4.70
2023-02-05T22:31:48.990Z,3.90
2023-02-05T22:34:15.457Z,4.00
2023-02-05T22:36:41.944Z,3.25
2023-02-05T22:39:08.555Z,4.82
2023-02-05T22:41:38.332Z,4.47
2023-02-05T22:44:06.156Z,3.78
2023-02-05T22:46:35.513Z,4.10
2023-02-05T22:49:03.494Z,3.17
2023-02-05T22:51:33.092Z,3.55
2023-02-05T22:54:00.096Z,3.30
2023-02-05T22:56:27.312Z,2.83
2023-02-05T22:58:54.454Z,2.80
2023-02-05T23:01:27.883Z,2.97
2023-02-05T23:03:54.929Z,3.70
2023-02-05T23:06:36.082Z,3.38
2023-02-05T23:09:04.584Z,3.58
2023-02-05T23:11:32.001Z,3.93
2023-02-05T23:13:59.294Z,2.67
2023-02-05T23:16:29.381Z,2.90
2023-02-05T23:18:58.377Z,3.15
2023-02-05T23:21:27.057Z,2.47
2023-02-05T23:23:53.629Z,2.87
2023-02-05T23:26:29.919Z,3.42
2023-02-05T23:28:56.710Z,2.45
2023-02-05T23:31:24.441Z,2.15
2023-02-05T23:33:52.152Z,2.70
2023-02-05T23:36:18.670Z,2.80
2023-02-05T23:38:45.571Z,2.55
2023-02-05T23:41:12.962Z,2.45
2023-02-05T23:43:40.102Z,2.15
2023-02-05T23:46:07.487Z,2.63
2023-02-05T23:48:34.720Z,2.57
2023-02-05T23:51:01.381Z,2.58
2023-02-05T23:53:27.880Z,2.38
2023-02-05T23:55:54.456Z,2.72
2023-02-05T23:58:23.862Z,2.40
